Flight Track Log - Related Links

Times and Time Zones

All times are in EDT time to prevent confusion due to time zone crossing. See the AKX1696 flight status page for this flight to view local times or setup timezone preferences in your user account.

Time Position Orientation Groundspeed Altitude Reporting Facility
EDT Latitude Longitude Course Direction KTS MPH feet Rate Location/Type
Sun 03:49:00 AM 37.1085 140.1696 240° Southwest  Level Estimated
Sun 03:50:00 AM 37.0687 140.0827 240° Southwest  Level Estimated
Sun 03:51:00 AM 37.0289 139.9960 240° Southwest  Level Estimated
Sun 03:52:00 AM 36.9890 139.9093 240° Southwest  Level Estimated
Sun 03:53:00 AM 36.9491 139.8227 240° Southwest  Level Estimated
Sun 03:54:00 AM 36.9090 139.7362 240° Southwest  Level Estimated
Sun 03:55:00 AM 36.8690 139.6498 240° Southwest  Level Estimated
Sun 03:56:00 AM 36.8288 139.5635 240° Southwest  Level Estimated
Sun 03:57:00 AM 36.7886 139.4773 240° Southwest  Level Estimated
Sun 03:58:00 AM 36.7483 139.3912 240° Southwest  Level Estimated
Sun 03:59:00 AM 36.7080 139.3051 240° Southwest  Level Estimated
Sun 04:00:00 AM 36.6676 139.2192 240° Southwest  Level Estimated
Sun 04:01:00 AM 36.6272 139.1333 240° Southwest  Level Estimated
Sun 04:02:00 AM 36.5866 139.0476 240° Southwest  Level Estimated
Sun 04:03:00 AM 36.5461 138.9619 239° Southwest  Level Estimated
Sun 04:04:00 AM 36.5054 138.8763 239° Southwest  Level Estimated
Sun 04:05:00 AM 36.4647 138.7908 239° Southwest  Level Estimated
Sun 04:06:00 AM 36.4240 138.7054 239° Southwest  Level Estimated
Sun 04:07:00 AM 36.3831 138.6201 239° Southwest  Level Estimated
Sun 04:08:00 AM 36.3423 138.5349 239° Southwest  Level Estimated
Sun 04:09:00 AM 36.3013 138.4497 239° Southwest  Level Estimated
Sun 04:10:00 AM 36.2603 138.3647 239° Southwest  Level Estimated
Sun 04:11:00 AM 36.2192 138.2797 239° Southwest  Level Estimated
Sun 04:12:00 AM 36.1781 138.1949 239° Southwest  Level Estimated
Sun 04:13:00 AM 36.1370 138.1101 239° Southwest  Level Estimated
Sun 04:14:00 AM 36.0957 138.0254 239° Southwest  Level Estimated
Sun 04:15:00 AM 36.0544 137.9408 239° Southwest  Level Estimated
Sun 04:16:00 AM 36.0131 137.8563 239° Southwest  Level Estimated
Sun 04:17:00 AM 35.9716 137.7719 239° Southwest  Level Estimated
Sun 04:18:00 AM 35.9301 137.6875 239° Southwest  Level Estimated
Sun 04:19:00 AM 35.8886 137.6033 239° Southwest  Level Estimated
Sun 04:20:00 AM 35.8470 137.5191 239° Southwest  Level Estimated
Sun 04:21:00 AM 35.8054 137.4350 239° Southwest  Level Estimated
Sun 04:22:00 AM 35.7636 137.3511 239° Southwest  Level Estimated
Sun 04:23:00 AM 35.7219 137.2672 238° Southwest  Level Estimated
Sun 04:24:00 AM 35.6800 137.1834 238° Southwest  Level Estimated
Sun 04:25:00 AM 35.6381 137.0997 238° Southwest  Level Estimated
Sun 04:26:00 AM 35.5962 137.0160 238° Southwest  Level Estimated
Sun 04:27:00 AM 35.5542 136.9325 238° Southwest  Level Estimated
Sun 04:28:00 AM 35.5121 136.8490 238° Southwest  Level Estimated
Sun 04:29:00 AM 35.4700 136.7657 238° Southwest  Level Estimated
Sun 04:30:00 AM 35.4278 136.6824 238° Southwest  Level Estimated
Sun 04:31:00 AM 35.3856 136.5992 238° Southwest  Level Estimated
Sun 04:32:00 AM 35.3433 136.5161 238° Southwest  Level Estimated
Sun 04:33:00 AM 35.3009 136.4331 238° Southwest  Level Estimated
Sun 04:34:00 AM 35.2585 136.3501 238° Southwest  Level Estimated
Sun 04:35:00 AM 35.2161 136.2673 238° Southwest  Level Estimated
Sun 04:36:00 AM 35.1735 136.1846 238° Southwest  Level Estimated
Sun 04:37:00 AM 35.1310 136.1019 238° Southwest  Level Estimated
Sun 04:38:00 AM 35.0883 136.0193 238° Southwest  Level Estimated
Sun 04:39:00 AM 35.0457 135.9368 238° Southwest  Level Estimated
Sun 04:40:00 AM 35.0029 135.8544 238° Southwest  Level Estimated
Sun 04:41:00 AM 34.9601 135.7721 238° Southwest  Level Estimated
Sun 04:42:00 AM 34.9173 135.6898 238° Southwest  Level Estimated
Sun 04:43:00 AM 34.8744 135.6077 238° Southwest  Level Estimated
Sun 04:44:00 AM 34.8314 135.5256 237° Southwest  Level Estimated
Sun 04:45:00 AM 34.7884 135.4436 237° Southwest  Level Estimated
Sun 04:46:00 AM 34.7855 135.4382 237° Southwest  Level Estimated
Sun 04:47:00 AM 34.7855 135.4382 141° Southeast  Level Estimated
Sun 04:48:00 AM 34.7855 135.4382 141° Southeast  Level Estimated
Sun 04:49:00 AM 34.7855 135.4382 141° Southeast  Level Estimated
Sun 04:50:00 AM 34.7855 135.4382 141° Southeast  Level Estimated
Sun 04:51:00 AM 34.7855 135.4382 141° Southeast  Level Estimated
Sun 04:52:00 AM 34.7855 135.4382 141° Southeast  Level Estimated
Sun 04:53:00 AM 34.7855 135.4382 141° Southeast  Level Estimated
Sun 04:54:00 AM 34.7855 135.4382 141° Southeast  Level Estimated
Sun 04:55:00 AM 34.7855 135.4382 141° Southeast  Level Estimated

Login

Don't have an account? Register now (free) for customized features, flight alerts, and more!